Festivo — EAEQ — position and weather

sailwx.info

Track history (hours):
 
Tides and Currents Weather Stations Pressure Air Temp Water Temp Dewpoint Dewpoint Depression Visibility Wind Speed Wind Dir Waves Ship Positions

Festivo

Last reported at 2016-Sep-21 09:33 UTC. Time now 2016-Sep-28 13:40 UTC.
Position N 35°28' W 002°58'.

Length 136 m; draft 4.5 m.

Type: Cargo ship. MMSI: 225410000.

Date/timePositionNaut miles runAvg speedWind from/ knotsBaromVisibWave heightAir tempDewpointWater temp
2016-Sep-21 09:33N 35°28' W 002°58'1010.5
2016-Sep-21 08:33N 35°18' W 002°55'121 5.0
2016-Sep-20 08:33N 35°56' W 005°16'3 3.4
2016-Sep-20 07:33N 35°54' W 005°19'0 0.0
2016-Sep-20 06:33N 35°54' W 005°19'  
2016-Sep-17 13:33N 35°54' W 005°19'0 0.0
2016-Sep-17 12:33N 35°54' W 005°19'0 0.0
2016-Sep-17 10:30N 35°54' W 005°19'0 0.0
2016-Sep-17 09:33N 35°54' W 005°19'0 0.0
2016-Sep-17 08:30N 35°54' W 005°19'0 0.0
2016-Sep-17 07:33N 35°54' W 005°19'3 1.5
2016-Sep-17 05:33N 35°56' W 005°17'5 0.1
2016-Sep-15 11:33N 35°59' W 005°12'  
Track history (hours):
 
Tides and Currents Weather Stations Pressure Air Temp Water Temp Dewpoint Dewpoint Depression Visibility Wind Speed Wind Dir Waves Ship Positions

Festivo

Last reported at 2016-Sep-21 09:33 UTC. Time now 2016-Sep-28 13:40 UTC.
Position N 35°28' W 002°58'.

Length 136 m; draft 4.5 m.

Type: Cargo ship. MMSI: 225410000.

Date/timePositionNaut miles runAvg speedWind from/ knotsBaromVisibWave heightAir tempDewpointWater temp
2016-Sep-21 09:33N 35°28' W 002°58'1010.5
2016-Sep-21 08:33N 35°18' W 002°55'121 5.0
2016-Sep-20 08:33N 35°56' W 005°16'3 3.4
2016-Sep-20 07:33N 35°54' W 005°19'0 0.0
2016-Sep-20 06:33N 35°54' W 005°19'  
2016-Sep-17 13:33N 35°54' W 005°19'0 0.0
2016-Sep-17 12:33N 35°54' W 005°19'0 0.0
2016-Sep-17 10:30N 35°54' W 005°19'0 0.0
2016-Sep-17 09:33N 35°54' W 005°19'0 0.0
2016-Sep-17 08:30N 35°54' W 005°19'0 0.0
2016-Sep-17 07:33N 35°54' W 005°19'3 1.5
2016-Sep-17 05:33N 35°56' W 005°17'5 0.1
2016-Sep-15 11:33N 35°59' W 005°12'  

Dump ship's entire track history